| time (UTC) | temp F | wind direction | speed knots | gust knots | rain 1hr in | rain 24hr in | rain mn in | humidity % | barometer mb |
| 20260506170517 | 65 | 0.0 | 0.9 | 0.00 | 0.00 | 0.00 | 75 | 1019.0 | |
| 20260506165517 | 64 | 0.0 | 1.7 | 0.00 | 0.00 | 0.00 | 76 | 1018.8 | |
| 20260506164517 | 64 | 0.0 | 0.9 | 0.00 | 0.00 | 0.00 | 76 | 1018.9 | |
| 20260506163517 | 64 | 0.0 | 0.9 | 0.00 | 0.00 | 0.00 | 75 | 1018.8 | |
| 20260506162517 | 63 | 0.0 | 0.0 | 0.00 | 0.00 | 0.00 | 79 | 1018.8 | |
| 20260506161517 | 63 | 0.0 | 0.9 | 0.00 | 0.00 | 0.00 | 79 | 1018.9 | |
| 20260506160517 | 62 | 0.0 | 0.0 | 0.00 | 0.00 | 0.00 | 79 | 1018.8 | |
| 20260506155517 | 62 | 0.0 | 0.9 | 0.00 | 0.00 | 0.00 | 81 | 1018.8 | |
| 20260506154517 | 61 | 0.0 | 0.9 | 0.00 | 0.00 | 0.00 | 80 | 1018.7 | |
| 20260506153517 | 61 | 0.0 | 0.0 | 0.00 | 0.00 | 0.00 | 82 | 1018.7 | |
| 20260506152517 | 61 | 0.0 | 0.0 | 0.00 | 0.00 | 0.00 | 82 | 1018.7 | |
| 20260506151517 | 60 | 0.0 | 0.0 | 0.00 | 0.00 | 0.00 | 84 | 1018.7 | |
| 20260506150517 | 60 | 0.0 | 0.0 | 0.00 | 0.00 | 0.00 | 85 | 1018.6 | |
| 20260506145517 | 59 | 0.0 | 0.0 | 0.00 | 0.00 | 0.00 | 85 | 1018.6 | |
| 20260506144517 | 59 | 0.0 | 0.0 | 0.00 | 0.00 | 0.00 | 85 | 1018.6 | |
| 20260506143517 | 59 | 0.0 | 0.0 | 0.00 | 0.00 | 0.00 | 86 | 1018.5 | |
| 20260506142517 | 58 | 0.0 | 0.0 | 0.00 | 0.00 | 0.00 | 86 | 1018.5 | |
| 20260506141517 | 58 | 0.0 | 0.0 | 0.00 | 0.00 | 0.00 | 86 | 1018.4 | |
| 20260506140517 | 58 | 0.0 | 0.0 | 0.00 | 0.00 | 0.00 | 86 | 1018.3 | |
| 20260506135517 | 58 | 0.0 | 0.0 | 0.00 | 0.00 | 0.00 | 86 | 1018.1 | |
| 20260506134517 | 58 | 0.0 | 0.0 | 0.00 | 0.00 | 0.00 | 86 | 1018.0 | |
| 20260506133517 | 57 | 0.0 | 0.0 | 0.00 | 0.00 | 0.00 | 86 | 1017.9 | |
| 20260506132517 | 57 | 0.0 | 0.0 | 0.00 | 0.00 | 0.00 | 87 | 1017.8 | |
| 20260506131516 | 58 | 0.0 | 0.0 | 0.00 | 0.00 | 0.00 | 87 | 1017.8 | |
| 20260506130517 | 58 | 0.0 | 0.0 | 0.00 | 0.00 | 0.00 | 87 | 1017.7 | |
| 20260506125517 | 58 | 0.0 | 0.0 | 0.00 | 0.00 | 0.00 | 87 | 1017.6 | |
| 20260506124516 | 58 | 0.0 | 0.0 | 0.00 | 0.00 | 0.00 | 86 | 1017.7 | |
| 20260506123517 | 58 | 0.0 | 0.0 | 0.00 | 0.00 | 0.00 | 86 | 1017.6 | |
| 20260506122517 | 58 | 0.0 | 0.0 | 0.00 | 0.00 | 0.00 | 86 | 1017.5 | |
| 20260506121517 | 58 | 0.0 | 0.0 | 0.00 | 0.00 | 0.00 | 86 | 1017.5 | |
| 20260506120517 | 58 | 0.0 | 0.0 | 0.00 | 0.00 | 0.00 | 85 | 1017.4 | |
| 20260506115516 | 58 | 0.0 | 0.0 | 0.00 | 0.00 | 0.00 | 85 | 1017.4 | |
| 20260506114517 | 58 | 0.0 | 0.0 | 0.00 | 0.00 | 0.00 | 85 | 1017.3 | |
| 20260506113516 | 58 | 0.0 | 0.0 | 0.00 | 0.00 | 0.00 | 85 | 1017.3 | |
| 20260506112517 | 58 | 0.0 | 0.0 | 0.00 | 0.00 | 0.00 | 85 | 1017.2 | |
| 20260506111517 | 59 | 0.0 | 0.0 | 0.00 | 0.00 | 0.00 | 85 | 1017.1 | |
| 20260506110516 | 58 | 0.0 | 0.0 | 0.00 | 0.00 | 0.00 | 85 | 1017.1 | |
| 20260506105517 | 58 | 0.0 | 0.0 | 0.00 | 0.00 | 0.00 | 85 | 1016.9 | |
| 20260506104517 | 58 | 0.0 | 0.0 | 0.00 | 0.00 | 0.00 | 85 | 1016.9 | |
| 20260506103516 | 58 | 0.0 | 0.0 | 0.00 | 0.00 | 0.00 | 85 | 1016.7 | |
| 20260506102516 | 58 | 0.0 | 0.0 | 0.00 | 0.00 | 0.00 | 85 | 1016.7 | |
| 20260506101516 | 58 | 0.0 | 0.0 | 0.00 | 0.00 | 0.00 | 85 | 1016.5 | |
| 20260506100516 | 59 | 0.0 | 0.0 | 0.00 | 0.00 | 0.00 | 85 | 1016.5 | |
| 20260506095516 | 59 | 0.0 | 0.0 | 0.00 | 0.00 | 0.00 | 85 | 1016.5 | |
| 20260506094516 | 59 | 0.0 | 0.0 | 0.00 | 0.00 | 0.00 | 84 | 1016.5 | |
| 20260506093516 | 59 | 0.0 | 0.0 | 0.00 | 0.00 | 0.00 | 84 | 1016.5 | |
| 20260506092516 | 59 | 0.0 | 0.9 | 0.00 | 0.00 | 0.00 | 84 | 1016.5 | |
| 20260506091516 | 59 | 0.0 | 0.9 | 0.00 | 0.00 | 0.00 | 84 | 1016.6 | |
| 20260506090516 | 59 | 0.0 | 0.9 | 0.00 | 0.00 | 0.00 | 84 | 1016.6 | |
| 20260506085516 | 59 | 0.0 | 0.9 | 0.00 | 0.00 | 0.00 | 84 | 1016.5 | |
| 20260506084516 | 59 | 0.0 | 0.9 | 0.00 | 0.00 | 0.00 | 84 | 1016.5 | |
| 20260506083516 | 59 | 0.0 | 0.0 | 0.00 | 0.00 | 0.00 | 84 | 1016.5 | |
| 20260506082516 | 59 | 0.0 | 0.9 | 0.00 | 0.00 | 0.00 | 83 | 1016.6 | |
| 20260506081516 | 60 | 0.0 | 0.9 | 0.00 | 0.00 | 0.00 | 83 | 1016.6 | |
| 20260506080516 | 60 | 0.0 | 0.9 | 0.00 | 0.00 | 0.00 | 83 | 1016.5 | |
| 20260506073516 | 60 | 0.0 | 0.0 | 0.00 | 0.01 | 0.00 | 81 | 1016.3 | |
| 20260506072516 | 60 | 0.0 | 0.0 | 0.00 | 0.02 | 0.00 | 81 | 1016.1 | |
| 20260506071516 | 60 | 0.0 | 0.0 | 0.00 | 0.03 | 0.00 | 81 | 1016.0 | |
| 20260506070516 | 60 | 0.0 | 0.0 | 0.00 | 0.05 | 0.00 | 81 | 1015.8 | |
| 20260506062517 | 60 | 0.0 | 0.9 | 0.00 | 0.07 | 0.05 | 80 | 1015.7 | |
| 20260506061517 | 60 | 0.0 | 0.0 | 0.00 | 0.07 | 0.05 | 80 | 1015.5 | |
| 20260506060517 | 60 | 0.0 | 0.9 | 0.00 | 0.07 | 0.05 | 80 | 1015.4 | |
| 20260506050517 | 61 | 0.0 | 1.7 | 0.00 | 0.14 | 0.05 | 79 | 1015.1 | |
| 20260506044516 | 61 | 203 | 0.9 | 1.7 | 0.00 | 0.17 | 0.05 | 78 | 1014.5 |
| 20260506043516 | 61 | 158 | 0.9 | 1.7 | 0.00 | 0.18 | 0.05 | 78 | 1014.4 |
| 20260506042516 | 61 | 0.0 | 0.9 | 0.00 | 0.20 | 0.05 | 78 | 1014.3 | |
| 20260506041516 | 61 | 203 | 0.9 | 2.6 | 0.00 | 0.21 | 0.05 | 78 | 1014.2 |
| 20260506040517 | 61 | 203 | 0.9 | 1.7 | 0.00 | 0.23 | 0.05 | 78 | 1014.1 |
| 20260506035516 | 62 | 203 | 0.9 | 2.6 | 0.00 | 0.26 | 0.05 | 78 | 1014.1 |
| 20260506034516 | 62 | 203 | 0.9 | 1.7 | 0.00 | 0.28 | 0.05 | 77 | 1014.0 |
| 20260506033516 | 62 | 203 | 0.9 | 1.7 | 0.00 | 0.33 | 0.05 | 77 | 1014.1 |
| 20260506032516 | 62 | 180 | 0.9 | 1.7 | 0.00 | 0.36 | 0.05 | 76 | 1013.8 |
| 20260506031517 | 62 | 180 | 0.9 | 1.7 | 0.00 | 0.39 | 0.05 | 76 | 1013.6 |
| 20260506030516 | 63 | 203 | 0.9 | 1.7 | 0.00 | 0.41 | 0.05 | 76 | 1013.6 |
| 20260506025516 | 63 | 203 | 1.7 | 2.6 | 0.00 | 0.42 | 0.05 | 75 | 1013.3 |
| 20260506024516 | 63 | 180 | 0.9 | 2.6 | 0.00 | 0.42 | 0.05 | 74 | 1013.3 |
| 20260506023516 | 64 | 203 | 0.9 | 1.7 | 0.00 | 0.43 | 0.05 | 74 | 1013.2 |
| 20260506022516 | 64 | 203 | 1.7 | 2.6 | 0.00 | 0.44 | 0.05 | 72 | 1013.0 |
| 20260506021516 | 64 | 203 | 0.9 | 2.6 | 0.00 | 0.45 | 0.05 | 72 | 1013.0 |
| 20260506020516 | 65 | 180 | 0.9 | 1.7 | 0.00 | 0.48 | 0.05 | 73 | 1013.0 |
| 20260506015516 | 65 | 203 | 1.7 | 3.5 | 0.00 | 0.51 | 0.05 | 71 | 1012.9 |
| 20260506014516 | 65 | 203 | 1.7 | 2.6 | 0.00 | 0.53 | 0.05 | 71 | 1013.0 |
| 20260506013516 | 65 | 203 | 1.7 | 2.6 | 0.00 | 0.54 | 0.05 | 71 | 1012.8 |
| 20260506012516 | 65 | 203 | 1.7 | 3.5 | 0.00 | 0.56 | 0.05 | 70 | 1012.9 |
| 20260506011516 | 65 | 180 | 1.7 | 3.5 | 0.00 | 0.58 | 0.05 | 70 | 1012.8 |
| 20260506010516 | 66 | 135 | 1.7 | 2.6 | 0.00 | 0.60 | 0.05 | 70 | 1012.7 |
| 20260506005516 | 66 | 158 | 0.9 | 1.7 | 0.00 | 0.61 | 0.05 | 70 | 1012.8 |
| 20260506004516 | 66 | 225 | 0.9 | 2.6 | 0.00 | 0.61 | 0.05 | 69 | 1012.7 |
| 20260506003516 | 66 | 225 | 0.9 | 2.6 | 0.00 | 0.62 | 0.05 | 68 | 1012.7 |
| 20260506002516 | 66 | 135 | 0.9 | 1.7 | 0.00 | 0.62 | 0.05 | 67 | 1012.7 |
| 20260506001516 | 67 | 180 | 0.9 | 2.6 | 0.00 | 0.62 | 0.05 | 67 | 1012.8 |
| 20260506000516 | 67 | 135 | 0.9 | 1.7 | 0.00 | 0.62 | 0.05 | 67 | 1012.7 |
| 20260505235516 | 67 | 135 | 0.9 | 2.6 | 0.00 | 0.62 | 0.05 | 67 | 1012.7 |
| 20260505234516 | 67 | 225 | 0.9 | 1.7 | 0.00 | 0.63 | 0.05 | 67 | 1012.6 |
| 20260505233516 | 67 | 113 | 0.9 | 1.7 | 0.00 | 0.64 | 0.05 | 68 | 1012.6 |
| 20260505232516 | 67 | 113 | 0.9 | 1.7 | 0.00 | 0.65 | 0.05 | 66 | 1012.6 |
| 20260505231516 | 68 | 135 | 0.9 | 1.7 | 0.00 | 0.65 | 0.05 | 67 | 1012.7 |
| 20260505230516 | 68 | 0.0 | 1.7 | 0.00 | 0.66 | 0.05 | 64 | 1012.7 | |
| 20260505225516 | 69 | 0.0 | 1.7 | 0.00 | 0.66 | 0.05 | 66 | 1012.8 | |
| 20260505224516 | 67 | 135 | 0.9 | 1.7 | 0.00 | 0.67 | 0.05 | 66 | 1012.9 |
| 20260505223516 | 67 | 135 | 0.9 | 1.7 | 0.00 | 0.67 | 0.05 | 68 | 1012.9 |
| 20260505222516 | 67 | 135 | 0.9 | 2.6 | 0.00 | 0.67 | 0.05 | 68 | 1013.0 |
| 20260505221516 | 70 | 0.0 | 1.7 | 0.00 | 0.68 | 0.05 | 66 | 1013.2 | |
| 20260505220516 | 69 | 0.0 | 0.9 | 0.00 | 0.68 | 0.05 | 66 | 1013.3 | |
| 20260505215516 | 66 | 0.0 | 0.9 | 0.00 | 0.69 | 0.05 | 67 | 1013.4 | |
| 20260505214516 | 66 | 0.0 | 0.9 | 0.00 | 0.70 | 0.05 | 68 | 1013.5 | |
| 20260505213516 | 66 | 0.0 | 0.9 | 0.00 | 0.70 | 0.05 | 70 | 1013.5 | |
| 20260505212516 | 66 | 0.0 | 0.9 | 0.00 | 0.70 | 0.05 | 69 | 1013.6 | |
| 20260505211515 | 66 | 113 | 0.9 | 2.6 | 0.00 | 0.70 | 0.05 | 69 | 1013.7 |
| 20260505210516 | 65 | 0.0 | 0.9 | 0.00 | 0.71 | 0.05 | 69 | 1013.8 | |
| 20260505205516 | 66 | 113 | 0.9 | 2.6 | 0.00 | 0.71 | 0.05 | 70 | 1013.7 |
| 20260505204516 | 66 | 0.0 | 0.9 | 0.00 | 0.71 | 0.05 | 70 | 1013.8 | |
| 20260505202515 | 66 | 0.0 | 0.9 | 0.00 | 0.71 | 0.05 | 69 | 1013.7 | |
| 20260505201515 | 64 | 0.0 | 0.9 | 0.00 | 0.71 | 0.05 | 71 | 1014.0 | |
| 20260505200516 | 64 | 0.0 | 1.7 | 0.00 | 0.71 | 0.05 | 71 | 1014.1 | |
| 20260505195516 | 64 | 0.0 | 0.9 | 0.00 | 0.71 | 0.05 | 70 | 1014.0 | |
| 20260505194516 | 64 | 0.0 | 0.0 | 0.00 | 0.71 | 0.05 | 74 | 1014.0 | |
| 20260505193516 | 62 | 0.0 | 0.9 | 0.00 | 0.71 | 0.05 | 76 | 1014.1 | |
| 20260505192516 | 62 | 0.0 | 0.9 | 0.00 | 0.71 | 0.05 | 75 | 1014.2 | |
| 20260505191516 | 62 | 0.0 | 0.9 | 0.00 | 0.72 | 0.05 | 76 | 1014.2 | |
| 20260505190516 | 62 | 0.0 | 0.9 | 0.00 | 0.72 | 0.05 | 77 | 1014.1 | |
| 20260505185516 | 62 | 0.0 | 0.9 | 0.00 | 0.72 | 0.05 | 78 | 1014.2 | |
| 20260505184516 | 60 | 0.0 | 0.9 | 0.00 | 0.72 | 0.05 | 81 | 1014.1 | |
| 20260505183518 | 60 | 0.0 | 1.7 | 0.00 | 0.72 | 0.05 | 80 | 1014.1 | |
| 20260505182517 | 59 | 0.0 | 0.9 | 0.00 | 0.72 | 0.05 | 82 | 1014.0 | |
| 20260505181517 | 59 | 0.0 | 0.0 | 0.00 | 0.72 | 0.05 | 83 | 1014.0 | |
| 20260505180517 | 59 | 338 | 0.9 | 2.6 | 0.00 | 0.72 | 0.05 | 82 | 1013.8 |
| 20260505175517 | 59 | 0.0 | 0.9 | 0.00 | 0.72 | 0.05 | 83 | 1013.9 | |
| 20260505174518 | 59 | 0.0 | 1.7 | 0.00 | 0.72 | 0.05 | 83 | 1013.8 | |
| 20260505173518 | 58 | 0.0 | 0.9 | 0.00 | 0.72 | 0.05 | 85 | 1013.8 | |
| 20260505172517 | 58 | 0.0 | 1.7 | 0.00 | 0.72 | 0.05 | 85 | 1013.8 | |
| 20260505171517 | 57 | 0.0 | 1.7 | 0.00 | 0.72 | 0.05 | 86 | 1013.7 |